Southgate, MI (48195)

01:20 EST 30. Leden 2015 (GMT -0500)
Castle and Burns St. | Change Station
CLOSE
Current Station
Osobní povětrnostní stanice
Location: Southgate, MI
Nadmořská výška: 580 ft
Poblíž povětrnostní stanice

Výška 580 ft 42.21 °N, 83.19 °W | Updated 4 minutes ago

Zataženo
Zataženo
27.6 °F
Pocit jako 20 °F
S
8.0
Vítr proměnlivý Vítr od severní
Gusts 15.0 mil/h

Dnes
Vysoké -- | Nízké -- °F
--% Možnost srážek
Včera
Vysoké -- | Nízké -- °F
Precip. -- inčů
7:48 AM 5:44 PM
Dorůstající měsíc, 80% visible
Tlak 30.12 inčů
Viditelnost 8.0 mílí
Zataženo Polojasno 2500 ft
Zataženo 4000 ft
Ochlazování větrem 20 °F
Rosný bod 20 °F
Vlhkost 73%
Dešťové srážky 0.00 inčů
Sněhová pokrývka Není k dispozici
UV záření 0.0 ze 12
Pyl .10 ze 12
Kvalita ovzduší Není k dispozici
Flu Activity Není k dispozici
METAR KDTW 300553Z 29015G24KT 8SM -SN SCT025 OVC040 M03/M09 A3010 RMK AO2 PK WND 26033/0512 SLP200 P0000 60000 T10281089 10006 21028 52027

More Conditions Fewer Conditions

Tlak 30.12 inčů
Viditelnost 8.0 mílí
Zataženo Polojasno 2500 ft
Zataženo 4000 ft
Ochlazování větrem 20 °F
Rosný bod 20 °F
Vlhkost 73%
Dešťové srážky 0.00 inčů
Sněhová pokrývka Není k dispozici
UV záření 0.0 ze 12
Pyl .10 ze 12
Kvalita ovzduší Není k dispozici
Flu Activity Není k dispozici
METAR KDTW 300553Z 29015G24KT 8SM -SN SCT025 OVC040 M03/M09 A3010 RMK AO2 PK WND 26033/0512 SLP200 P0000 60000 T10281089 10006 21028 52027

More Conditions Fewer Conditions

10-Day Weather Forecast

Almanac

Astronomie

Jan. 30, 2015 Východ Západ
Skutečný čas
Občanský soumrak
Námořní soumrak
Astronomický soumrak
Měsíc
Délka denního světla
Délka dne
Tomorrow will be .
, % of the Moon is Illuminated

Dnešní extrémy

State Highs State Lows

Community

WunderPhotos

Upload Photos

1,791,721 snímků staženo!

WunderBlogs® & News

Nearby

Kvalita ovzduší

  Kvalita ovzduší Index kvality ovzduší Polutant
Not available.

Výška sněhu

Station Hloubka Nadmořská výška

Seizmická činnost

Město Distance Mag. Čas & datum
Minimální zobrazený rozsah je 2.5.

Pobřežní teplota vody

Lokalita Teplota

Poblíž povětrnostní stanice